createdAt,value
2018-12-08T00:00:11.639Z,97089.52
2018-12-08T00:02:44.880Z,97079.80
2018-12-08T00:05:16.185Z,97078.14
2018-12-08T00:07:49.291Z,97083.00
2018-12-08T00:12:56.798Z,97078.25
2018-12-08T00:15:29.408Z,97094.20
2018-12-08T00:18:01.730Z,97094.48
2018-12-08T00:20:33.474Z,97092.08
2018-12-08T00:23:07.785Z,97095.06
2018-12-08T00:25:39.165Z,97101.20
2018-12-08T00:28:10.204Z,97095.30
2018-12-08T00:31:56.443Z,97085.39
2018-12-08T00:34:27.776Z,97071.17
2018-12-08T00:36:59.765Z,97046.56
2018-12-08T00:39:33.049Z,97049.80
2018-12-08T00:42:04.145Z,97048.39
2018-12-08T00:44:35.296Z,97051.78
2018-12-08T00:47:09.608Z,97053.94
2018-12-08T00:49:41.592Z,97057.91
2018-12-08T00:52:13.630Z,97070.34
2018-12-08T00:54:45.010Z,97063.61
2018-12-08T00:57:16.098Z,97087.02
2018-12-08T01:02:23.880Z,97096.89
2018-12-08T01:04:55.973Z,97093.19
2018-12-08T01:10:04.770Z,97101.03
2018-12-08T01:12:36.540Z,97103.46
2018-12-08T01:15:08.633Z,97109.91
2018-12-08T01:17:39.549Z,97114.48
2018-12-08T01:20:11.709Z,97102.91
2018-12-08T01:22:45.137Z,97104.52
2018-12-08T01:25:17.199Z,97100.48
2018-12-08T01:27:47.681Z,97103.98
2018-12-08T01:30:18.460Z,97097.88
2018-12-08T01:32:49.931Z,97095.88
2018-12-08T01:37:57.739Z,97084.83
2018-12-08T01:40:29.655Z,97087.49
2018-12-08T01:43:04.061Z,97078.12
2018-12-08T01:45:35.480Z,97077.34
2018-12-08T01:48:07.624Z,97078.51
2018-12-08T01:50:38.475Z,97073.13
2018-12-08T01:53:10.316Z,97071.27
2018-12-08T01:58:24.879Z,97048.50
2018-12-08T02:00:57.199Z,97045.73
2018-12-08T02:03:30.440Z,97057.33
2018-12-08T02:06:02.580Z,97050.35
2018-12-08T02:08:34.846Z,97051.13
2018-12-08T02:11:08.057Z,97047.13
2018-12-08T02:13:41.097Z,97037.97
2018-12-08T02:16:12.191Z,97043.63
2018-12-08T02:18:44.006Z,97041.41
2018-12-08T02:21:15.045Z,97044.34
2018-12-08T02:23:47.955Z,97038.42
2018-12-08T02:28:56.815Z,97034.09
2018-12-08T02:31:27.674Z,97039.27
2018-12-08T02:33:58.860Z,97033.35
2018-12-08T02:36:29.489Z,97032.83
2018-12-08T02:39:00.168Z,97033.33
2018-12-08T02:41:31.759Z,97036.02
2018-12-08T02:44:04.558Z,97034.31
2018-12-08T02:46:36.512Z,97029.45
2018-12-08T02:49:07.566Z,97034.84
2018-12-08T02:51:39.005Z,97026.77
2018-12-08T02:54:10.233Z,97031.56
2018-12-08T02:59:18.271Z,97037.17
2018-12-08T03:01:49.192Z,97031.26
2018-12-08T03:04:20.436Z,97034.48
2018-12-08T03:06:52.679Z,97041.72
2018-12-08T03:09:25.067Z,97036.33
2018-12-08T03:11:56.732Z,97043.30
2018-12-08T03:14:27.534Z,97045.41
2018-12-08T03:17:01.262Z,97045.63
2018-12-08T03:19:37.810Z,97051.01
2018-12-08T03:22:09.448Z,97052.33
2018-12-08T03:24:40.892Z,97060.32
2018-12-08T03:27:11.493Z,97060.38
2018-12-08T03:29:42.006Z,97062.98
2018-12-08T03:32:14.494Z,97070.53
2018-12-08T03:34:45.328Z,97071.27
2018-12-08T03:37:17.971Z,97070.91
2018-12-08T03:39:49.684Z,97074.69
2018-12-08T03:42:22.545Z,97077.46
2018-12-08T03:44:53.515Z,97076.34
2018-12-08T03:47:25.073Z,97071.11
2018-12-08T03:49:56.196Z,97078.95
2018-12-08T03:52:26.697Z,97076.66
2018-12-08T03:54:59.157Z,97075.83
2018-12-08T04:00:07.656Z,97084.91
2018-12-08T04:02:38.899Z,97090.03
2018-12-08T04:05:13.473Z,97095.67
2018-12-08T04:07:45.634Z,97101.31
2018-12-08T04:10:17.668Z,97110.14
2018-12-08T04:12:48.154Z,97112.50
2018-12-08T04:15:19.003Z,97113.73
2018-12-08T04:17:51.198Z,97117.25
2018-12-08T04:20:22.161Z,97121.77
2018-12-08T04:22:54.599Z,97130.06
2018-12-08T04:25:25.350Z,97129.76
2018-12-08T04:27:56.143Z,97128.91
2018-12-08T04:30:26.674Z,97130.25
2018-12-08T04:35:34.465Z,97137.53
2018-12-08T04:43:35.769Z,97141.33
2018-12-08T04:46:06.221Z,97143.94
2018-12-08T04:48:36.334Z,97139.08
2018-12-08T04:53:48.221Z,97137.17
2018-12-08T04:56:18.444Z,97151.66
2018-12-08T04:58:48.701Z,97148.31
2018-12-08T05:01:19.049Z,97145.90
2018-12-08T05:03:49.142Z,97147.77
2018-12-08T05:06:19.351Z,97148.63
2018-12-08T05:08:50.355Z,97156.20
2018-12-08T05:11:20.630Z,97153.82
2018-12-08T05:13:50.827Z,97154.00
2018-12-08T05:16:21.152Z,97151.57
2018-12-08T05:18:51.355Z,97158.33
2018-12-08T05:21:21.373Z,97168.26
2018-12-08T05:23:51.584Z,97161.84
2018-12-08T05:26:21.652Z,97162.97
2018-12-08T05:28:52.028Z,97169.98
2018-12-08T05:31:22.310Z,97176.70
2018-12-08T05:33:52.947Z,97191.26
2018-12-08T05:36:23.239Z,97186.45
2018-12-08T05:38:53.252Z,97191.34
2018-12-08T05:41:23.397Z,97191.86
2018-12-08T05:43:54.092Z,97194.81
2018-12-08T05:46:24.249Z,97188.13
2018-12-08T05:48:54.657Z,97194.30
2018-12-08T05:51:24.781Z,97200.79
2018-12-08T05:53:54.856Z,97195.45
2018-12-08T05:56:25.086Z,97202.27
2018-12-08T05:58:56.508Z,97195.36
2018-12-08T06:01:27.020Z,97198.61
2018-12-08T06:03:57.621Z,97194.09
2018-12-08T06:06:27.847Z,97201.38
2018-12-08T06:08:57.915Z,97205.19
2018-12-08T06:11:28.355Z,97210.65
2018-12-08T06:13:59.591Z,97210.08
2018-12-08T06:16:29.657Z,97211.47
2018-12-08T06:19:00.210Z,97210.38
2018-12-08T06:21:37.784Z,97234.03
2018-12-08T06:27:16.163Z,97234.89
2018-12-08T06:29:46.930Z,97224.66
2018-12-08T06:32:17.895Z,97239.22
2018-12-08T06:34:48.014Z,97223.75
2018-12-08T06:37:18.505Z,97245.20
2018-12-08T06:39:48.572Z,97253.56
2018-12-08T06:42:18.747Z,97259.52
2018-12-08T06:44:49.184Z,97272.96
2018-12-08T06:47:19.561Z,97270.57
2018-12-08T06:49:49.811Z,97276.55
2018-12-08T06:52:20.387Z,97300.00
2018-12-08T06:54:50.568Z,97309.45
2018-12-08T06:57:20.874Z,97303.66
2018-12-08T06:59:51.217Z,97311.13
2018-12-08T07:02:21.275Z,97312.75
2018-12-08T07:04:51.588Z,97319.52
2018-12-08T07:07:21.837Z,97313.70
2018-12-08T07:09:52.277Z,97313.48
2018-12-08T07:12:22.465Z,97342.20
2018-12-08T07:14:52.953Z,97329.23
2018-12-08T07:17:23.468Z,97337.39
2018-12-08T07:19:54.582Z,97346.67
2018-12-08T07:22:24.706Z,97351.95
2018-12-08T07:24:56.344Z,97352.81
2018-12-08T07:27:27.000Z,97338.77
2018-12-08T07:29:57.159Z,97353.56
2018-12-08T07:32:28.308Z,97367.50
2018-12-08T07:34:59.041Z,97361.81
2018-12-08T07:37:29.474Z,97376.61
2018-12-08T07:39:59.972Z,97391.15
2018-12-08T07:42:30.522Z,97391.67
2018-12-08T07:47:38.870Z,97419.58
2018-12-08T07:50:10.049Z,97390.24
2018-12-08T07:52:40.028Z,97409.94
2018-12-08T07:55:10.836Z,97420.18
2018-12-08T07:57:41.168Z,97415.63
2018-12-08T08:00:12.914Z,97408.94
2018-12-08T08:02:43.662Z,97419.10
2018-12-08T08:05:13.826Z,97428.87
2018-12-08T08:07:44.032Z,97426.66
2018-12-08T08:10:14.873Z,97444.97
2018-12-08T08:12:45.625Z,97443.05
2018-12-08T08:15:15.608Z,97480.25
2018-12-08T08:17:47.437Z,97469.44
2018-12-08T08:20:17.618Z,97467.02
2018-12-08T08:22:48.127Z,97490.19
2018-12-08T08:25:18.071Z,97475.39
2018-12-08T08:27:48.773Z,97482.94
2018-12-08T08:30:18.818Z,97494.45
2018-12-08T08:32:48.955Z,97511.41
2018-12-08T08:35:19.338Z,97507.73
2018-12-08T08:37:49.650Z,97507.98
2018-12-08T08:40:19.726Z,97495.57
2018-12-08T08:42:49.985Z,97506.91
2018-12-08T08:45:20.320Z,97512.94
2018-12-08T08:47:51.301Z,97503.73
2018-12-08T08:50:21.311Z,97521.06
2018-12-08T08:52:51.690Z,97527.27
2018-12-08T08:55:21.920Z,97520.70
2018-12-08T08:57:52.712Z,97520.23
2018-12-08T09:00:23.537Z,97517.77
2018-12-08T09:02:53.801Z,97532.14
2018-12-08T09:08:00.887Z,97547.34
2018-12-08T09:10:30.987Z,97531.66
2018-12-08T09:13:02.106Z,97543.25
2018-12-08T09:15:32.486Z,97553.28
2018-12-08T09:18:02.973Z,97530.57
2018-12-08T09:20:33.280Z,97544.25
2018-12-08T09:23:05.573Z,97538.08
2018-12-08T09:25:39.630Z,97535.18
2018-12-08T09:28:10.393Z,97536.73
2018-12-08T09:30:41.808Z,97530.87
2018-12-08T09:33:12.548Z,97520.11
2018-12-08T09:35:43.806Z,97518.81
2018-12-08T09:38:14.975Z,97516.12
2018-12-08T09:40:45.328Z,97520.62
2018-12-08T09:43:15.926Z,97509.44
2018-12-08T09:45:46.765Z,97508.14
2018-12-08T09:48:16.995Z,97514.82
2018-12-08T09:50:47.039Z,97503.23
2018-12-08T09:53:19.289Z,97506.88
2018-12-08T09:55:49.668Z,97514.39
2018-12-08T09:58:19.934Z,97502.75
2018-12-08T10:00:50.548Z,97510.78
2018-12-08T10:03:20.846Z,97505.88
2018-12-08T10:05:51.000Z,97511.13
2018-12-08T10:08:21.483Z,97504.27
2018-12-08T10:10:51.586Z,97501.27
2018-12-08T10:13:22.734Z,97496.79
2018-12-08T10:15:53.139Z,97499.32
2018-12-08T10:18:23.655Z,97504.18
2018-12-08T10:20:54.164Z,97491.89
2018-12-08T10:23:25.152Z,97497.23
2018-12-08T10:25:55.406Z,97492.81
2018-12-08T10:28:25.774Z,97505.83
2018-12-08T10:31:00.262Z,97497.67
2018-12-08T10:33:30.446Z,97493.52
2018-12-08T10:36:00.855Z,97478.83
2018-12-08T10:38:31.281Z,97478.87
2018-12-08T10:41:01.667Z,97478.83
2018-12-08T10:43:31.977Z,97487.08
2018-12-08T10:46:03.146Z,97493.03
2018-12-08T10:48:37.154Z,97497.03
2018-12-08T10:51:07.164Z,97492.98
2018-12-08T10:53:39.627Z,97509.75
2018-12-08T10:56:09.993Z,97495.98
2018-12-08T10:58:40.204Z,97491.41
2018-12-08T11:01:15.490Z,97499.41
2018-12-08T11:03:49.208Z,97478.13
2018-12-08T11:06:19.334Z,97484.95
2018-12-08T11:08:49.681Z,97498.23
2018-12-08T11:11:19.873Z,97497.50
2018-12-08T11:13:50.225Z,97496.80
2018-12-08T11:16:20.751Z,97522.91
2018-12-08T11:18:51.089Z,97503.58
2018-12-08T11:21:21.199Z,97503.14
2018-12-08T11:23:52.227Z,97510.70
2018-12-08T11:26:22.712Z,97504.66
2018-12-08T11:28:53.129Z,97489.41
2018-12-08T11:31:23.341Z,97511.47
2018-12-08T11:33:53.845Z,97513.57
2018-12-08T11:36:24.414Z,97505.88
2018-12-08T11:38:54.651Z,97516.86
2018-12-08T11:41:24.963Z,97516.30
2018-12-08T11:43:55.242Z,97506.84
2018-12-08T11:46:25.671Z,97507.17
2018-12-08T11:48:55.963Z,97493.47
2018-12-08T11:51:26.421Z,97491.23
2018-12-08T11:53:56.614Z,97495.55
2018-12-08T11:56:27.670Z,97504.81
2018-12-08T11:58:58.286Z,97495.19
2018-12-08T12:01:28.389Z,97496.53
2018-12-08T12:03:58.718Z,97494.62
2018-12-08T12:06:28.969Z,97501.96
2018-12-08T12:09:00.467Z,97495.86
2018-12-08T12:11:30.553Z,97493.55
2018-12-08T12:14:00.718Z,97488.13
2018-12-08T12:16:31.019Z,97495.42
2018-12-08T12:19:01.796Z,97497.38
2018-12-08T12:21:32.502Z,97493.21
2018-12-08T12:24:03.627Z,97494.86
2018-12-08T12:26:33.716Z,97499.34
2018-12-08T12:29:04.756Z,97490.03
2018-12-08T12:31:34.905Z,97486.52
2018-12-08T12:34:05.286Z,97497.39
2018-12-08T12:36:35.683Z,97489.23
2018-12-08T12:39:06.948Z,97500.27
2018-12-08T12:41:38.549Z,97502.95
2018-12-08T12:44:09.559Z,97502.66
2018-12-08T12:46:40.077Z,97496.79
2018-12-08T12:49:10.158Z,97509.47
2018-12-08T12:51:40.208Z,97507.79
2018-12-08T12:54:10.444Z,97501.49
2018-12-08T12:59:17.119Z,97503.44
2018-12-08T13:01:47.223Z,97500.36
2018-12-08T13:04:17.212Z,97495.45
2018-12-08T13:06:47.345Z,97489.67
2018-12-08T13:09:17.606Z,97504.58
2018-12-08T13:11:48.575Z,97496.55
2018-12-08T13:14:18.969Z,97491.45
2018-12-08T13:16:49.891Z,97507.70
2018-12-08T13:19:20.254Z,97512.18
2018-12-08T13:21:50.293Z,97503.01
2018-12-08T13:24:20.996Z,97506.56
2018-12-08T13:26:50.889Z,97507.62
2018-12-08T13:29:21.616Z,97513.61
2018-12-08T13:31:51.781Z,97514.48
2018-12-08T13:34:27.840Z,97515.22
2018-12-08T13:36:58.613Z,97523.30
2018-12-08T13:39:28.800Z,97517.47
2018-12-08T13:41:59.489Z,97513.83
2018-12-08T13:44:37.984Z,97507.91
2018-12-08T13:47:07.952Z,97515.44
2018-12-08T13:49:38.243Z,97514.53
2018-12-08T13:55:00.632Z,97522.17
2018-12-08T13:57:31.050Z,97528.64
2018-12-08T14:00:00.996Z,97544.50
2018-12-08T14:02:31.461Z,97525.64
2018-12-08T14:05:02.323Z,97517.22
2018-12-08T14:07:32.587Z,97519.44
2018-12-08T14:10:04.175Z,97528.03
2018-12-08T14:12:35.955Z,97514.53
2018-12-08T14:15:08.175Z,97518.39
2018-12-08T14:17:39.332Z,97513.66
2018-12-08T14:20:27.704Z,97514.17
2018-12-08T14:22:58.429Z,97516.73
2018-12-08T14:25:31.878Z,97500.19
2018-12-08T14:28:04.188Z,97518.64
2018-12-08T14:30:34.460Z,97517.81
2018-12-08T14:33:06.291Z,97519.12
2018-12-08T14:35:37.187Z,97513.87
2018-12-08T14:38:09.179Z,97515.52
2018-12-08T14:43:16.558Z,97508.00
2018-12-08T14:45:46.556Z,97506.13
2018-12-08T14:48:17.060Z,97504.79
2018-12-08T14:50:48.315Z,97500.94
2018-12-08T14:53:18.309Z,97500.63
2018-12-08T14:55:50.741Z,97504.36
2018-12-08T14:58:21.905Z,97503.76
2018-12-08T15:00:53.327Z,97501.27
2018-12-08T15:03:24.799Z,97506.31
2018-12-08T15:05:55.724Z,97514.44
2018-12-08T15:08:25.690Z,97515.64
2018-12-08T15:10:56.961Z,97517.56
2018-12-08T15:13:27.663Z,97515.39
2018-12-08T15:16:00.687Z,97524.67
2018-12-08T15:21:07.322Z,97518.16
2018-12-08T15:23:37.816Z,97513.51
2018-12-08T15:28:49.782Z,97520.66
2018-12-08T15:31:21.093Z,97516.32
2018-12-08T15:33:52.188Z,97523.17
2018-12-08T15:36:24.581Z,97525.29
2018-12-08T15:38:56.488Z,97532.79
2018-12-08T15:41:27.195Z,97540.51
2018-12-08T15:43:58.576Z,97537.36
2018-12-08T15:46:29.705Z,97545.08
2018-12-08T15:48:59.734Z,97539.07
2018-12-08T15:51:29.844Z,97541.67
2018-12-08T15:54:01.163Z,97539.09
2018-12-08T15:56:31.678Z,97543.91
2018-12-08T15:59:03.765Z,97536.25
2018-12-08T16:01:34.397Z,97537.59
2018-12-08T16:04:05.404Z,97532.90
2018-12-08T16:06:36.444Z,97539.51
2018-12-08T16:09:08.132Z,97541.89
2018-12-08T16:14:15.460Z,97540.50
2018-12-08T16:16:46.211Z,97557.97
2018-12-08T16:19:16.640Z,97538.63
2018-12-08T16:21:48.705Z,97545.05
2018-12-08T16:24:19.796Z,97537.29
2018-12-08T16:26:51.530Z,97547.27
2018-12-08T16:29:22.030Z,97543.70
2018-12-08T16:31:53.117Z,97540.44
2018-12-08T16:34:25.205Z,97547.63
2018-12-08T16:36:56.208Z,97544.17
2018-12-08T16:39:26.881Z,97539.86
2018-12-08T16:41:57.813Z,97541.37
2018-12-08T16:44:29.083Z,97542.66
2018-12-08T16:46:59.488Z,97558.72
2018-12-08T16:49:30.242Z,97548.49
2018-12-08T16:52:00.208Z,97545.23
2018-12-08T16:57:07.602Z,97544.05
2018-12-08T16:59:38.089Z,97541.88
2018-12-08T17:02:08.757Z,97543.52
2018-12-08T17:04:41.011Z,97539.13
2018-12-08T17:07:16.400Z,97530.44
2018-12-08T17:09:48.742Z,97532.81
2018-12-08T17:12:21.030Z,97536.42
2018-12-08T17:14:52.214Z,97528.61
2018-12-08T17:20:01.267Z,97539.09
2018-12-08T17:22:31.387Z,97523.83
2018-12-08T17:25:01.843Z,97523.19
2018-12-08T17:27:32.010Z,97515.62
2018-12-08T17:30:03.070Z,97520.74
2018-12-08T17:32:33.956Z,97520.12
2018-12-08T17:35:04.982Z,97519.24
2018-12-08T17:37:35.786Z,97513.81
2018-12-08T17:40:10.663Z,97516.82
2018-12-08T17:42:40.913Z,97512.67
2018-12-08T17:45:12.169Z,97497.64
2018-12-08T17:47:42.955Z,97504.16
2018-12-08T17:50:14.415Z,97496.32
2018-12-08T17:52:45.197Z,97498.42
2018-12-08T17:55:15.408Z,97499.70
2018-12-08T17:57:46.348Z,97499.19
2018-12-08T18:00:18.845Z,97498.36
2018-12-08T18:02:50.021Z,97495.92
2018-12-08T18:05:23.476Z,97488.39
2018-12-08T18:07:54.605Z,97482.86
2018-12-08T18:10:29.248Z,97483.68
2018-12-08T18:13:04.844Z,97481.30
2018-12-08T18:15:36.226Z,97475.88
2018-12-08T18:18:06.363Z,97469.92
2018-12-08T18:20:38.948Z,97465.35
2018-12-08T18:23:09.859Z,97466.42
2018-12-08T18:25:40.558Z,97466.88
2018-12-08T18:28:11.631Z,97464.41
2018-12-08T18:30:42.796Z,97460.38
2018-12-08T18:33:12.762Z,97465.74
2018-12-08T18:35:43.444Z,97467.53
2018-12-08T18:38:14.269Z,97468.67
2018-12-08T18:40:45.184Z,97462.41
2018-12-08T18:43:16.667Z,97459.48
2018-12-08T18:45:47.081Z,97463.81
2018-12-08T18:48:18.554Z,97460.62
2018-12-08T18:53:26.259Z,97467.27
2018-12-08T18:55:56.853Z,97457.05
2018-12-08T18:58:28.774Z,97451.38
2018-12-08T19:01:00.852Z,97443.57
2018-12-08T19:03:31.583Z,97435.22
2018-12-08T19:06:04.556Z,97440.13
2018-12-08T19:08:36.155Z,97439.61
2018-12-08T19:13:49.800Z,97432.14
2018-12-08T19:16:21.264Z,97430.28
2018-12-08T19:18:51.777Z,97425.73
2018-12-08T19:21:22.008Z,97427.66
2018-12-08T19:23:52.371Z,97427.84
2018-12-08T19:26:26.381Z,97420.06
2018-12-08T19:28:58.082Z,97416.50
2018-12-08T19:31:28.063Z,97416.28
2018-12-08T19:33:58.102Z,97415.77
2018-12-08T19:36:28.855Z,97416.41
2018-12-08T19:38:59.479Z,97418.20
2018-12-08T19:41:30.330Z,97413.42
2018-12-08T19:44:01.581Z,97422.88
2018-12-08T19:46:32.511Z,97415.13
2018-12-08T19:49:02.475Z,97414.31
2018-12-08T19:51:33.148Z,97417.75
2018-12-08T19:54:04.420Z,97414.70
2018-12-08T19:56:36.152Z,97410.41
2018-12-08T19:59:06.981Z,97405.19
2018-12-08T20:01:37.083Z,97398.55
2018-12-08T20:04:07.597Z,97393.17
2018-12-08T20:06:39.593Z,97394.58
2018-12-08T20:09:10.145Z,97397.57
2018-12-08T20:11:40.360Z,97397.78
2018-12-08T20:16:52.791Z,97391.02
2018-12-08T20:19:24.793Z,97388.78
2018-12-08T20:21:57.111Z,97394.97
2018-12-08T20:24:27.511Z,97387.97
2018-12-08T20:29:35.890Z,97379.85
2018-12-08T20:34:48.930Z,97383.55
2018-12-08T20:37:20.117Z,97383.45
2018-12-08T20:39:54.254Z,97381.38
2018-12-08T20:42:26.053Z,97381.89
2018-12-08T20:44:57.579Z,97380.25
2018-12-08T20:47:27.764Z,97380.55
2018-12-08T20:49:58.043Z,97372.56
2018-12-08T20:52:28.227Z,97366.69
2018-12-08T20:54:58.833Z,97368.61
2018-12-08T20:57:29.197Z,97362.66
2018-12-08T20:59:59.792Z,97366.69
2018-12-08T21:05:07.460Z,97362.84
2018-12-08T21:07:37.855Z,97358.30
2018-12-08T21:10:08.190Z,97351.95
2018-12-08T21:12:38.444Z,97352.33
2018-12-08T21:15:08.692Z,97348.69
2018-12-08T21:20:15.385Z,97342.77
2018-12-08T21:22:45.409Z,97350.88
2018-12-08T21:25:15.799Z,97344.22
2018-12-08T21:27:46.119Z,97332.97
2018-12-08T21:30:17.690Z,97335.44
2018-12-08T21:32:48.046Z,97332.97
2018-12-08T21:35:18.323Z,97331.93
2018-12-08T21:37:48.494Z,97331.98
2018-12-08T21:40:34.655Z,97332.34
2018-12-08T21:45:50.560Z,97333.02
2018-12-08T21:48:21.208Z,97329.82
2018-12-08T21:50:51.546Z,97319.66
2018-12-08T21:53:22.486Z,97316.23
2018-12-08T21:55:52.740Z,97319.96
2018-12-08T21:58:22.895Z,97321.30
2018-12-08T22:00:57.172Z,97325.91
2018-12-08T22:03:27.209Z,97317.06
2018-12-08T22:05:57.303Z,97320.31
2018-12-08T22:11:04.443Z,97310.21
2018-12-08T22:13:34.743Z,97311.34
2018-12-08T22:16:06.265Z,97307.88
2018-12-08T22:18:37.045Z,97309.53
2018-12-08T22:21:08.453Z,97305.09
2018-12-08T22:23:38.585Z,97303.80
2018-12-08T22:26:08.837Z,97307.25
2018-12-08T22:28:39.206Z,97304.56
2018-12-08T22:31:09.229Z,97300.19
2018-12-08T22:33:40.635Z,97300.66
2018-12-08T22:36:10.934Z,97305.25
2018-12-08T22:38:41.380Z,97307.58
2018-12-08T22:41:11.699Z,97300.24
2018-12-08T22:43:42.334Z,97301.80
2018-12-08T22:46:12.556Z,97302.52
2018-12-08T22:48:43.283Z,97291.83
2018-12-08T22:51:13.612Z,97290.08
2018-12-08T22:53:44.024Z,97286.77
2018-12-08T22:56:14.259Z,97290.33
2018-12-08T22:58:45.396Z,97283.89
2018-12-08T23:01:15.475Z,97283.83
2018-12-08T23:03:46.548Z,97282.84
2018-12-08T23:06:18.613Z,97279.86
2018-12-08T23:08:48.871Z,97278.47
2018-12-08T23:11:19.053Z,97277.42
2018-12-08T23:13:49.321Z,97270.66
2018-12-08T23:16:20.090Z,97265.23
2018-12-08T23:18:50.707Z,97261.73
2018-12-08T23:21:20.998Z,97261.89
2018-12-08T23:23:52.132Z,97256.25
2018-12-08T23:26:22.603Z,97258.83
2018-12-08T23:28:54.473Z,97251.45
2018-12-08T23:31:25.156Z,97250.23
2018-12-08T23:33:56.239Z,97247.60
2018-12-08T23:39:03.320Z,97248.73
2018-12-08T23:41:34.872Z,97248.48
2018-12-08T23:44:06.409Z,97243.83
2018-12-08T23:46:40.799Z,97230.25
2018-12-08T23:49:11.815Z,97227.02
2018-12-08T23:51:42.148Z,97225.67
2018-12-08T23:54:12.336Z,97222.94
2018-12-08T23:56:42.485Z,97216.37
2018-12-08T23:59:13.642Z,97217.92
